Gulf — V2BB5 — position and weather

sailwx.info

Track history (hours):
 
Tides and Currents Weather Stations Pressure Air Temp Water Temp Dewpoint Dewpoint Depression Visibility Wind Speed Wind Dir Waves Ship Positions

Gulf

Last reported at 2016-Sep-27 10:27 UTC. Time now 2016-Sep-28 00:07 UTC.
Position N 50°44' E 000°20'.

Length 96 m; draft 4.9 m.

Type: Cargo ship. MMSI: 304320000.

Date/timePositionNaut miles runAvg speedWind from/ knotsBaromVisibWave heightAir tempDewpointWater temp
2016-Sep-27 10:27N 50°44' E 000°20'8 0.2
2016-Sep-26 00:15N 50°36' E 000°22'2 0.3
2016-Sep-25 17:33N 50°36' E 000°19'37 4.5
2016-Sep-25 09:18N 50°54' E 001°10'11 6.1
2016-Sep-25 07:33N 51°01' E 001°22'18 6.0
2016-Sep-25 04:33N 51°13' E 001°45'35 8.4
2016-Sep-25 00:23N 51°42' E 002°16'14 7.5
2016-Sep-24 22:32N 51°52' E 002°32'7 6.9
2016-Sep-24 21:31N 51°57' E 002°40'17 7.0
2016-Sep-24 19:08N 52°03' E 003°05'36 7.9
2016-Sep-24 14:33N 51°59' E 004°04'12 5.9
2016-Sep-24 12:31N 51°54' E 004°21'0 0.0
2016-Sep-24 10:31N 51°54' E 004°21'0 0.0
2016-Sep-24 09:33N 51°54' E 004°21'0 0.0
2016-Sep-24 03:28N 51°54' E 004°21'0 0.0
2016-Sep-24 02:31N 51°54' E 004°21'0 0.0
2016-Sep-24 01:31N 51°54' E 004°21'0 0.0
2016-Sep-24 00:32N 51°54' E 004°21'0 0.0
2016-Sep-23 19:31N 51°54' E 004°21'0 0.0
2016-Sep-23 17:28N 51°54' E 004°21'0 0.0
2016-Sep-23 16:32N 51°54' E 004°21'0 0.0
2016-Sep-23 15:32N 51°54' E 004°21'5 2.3
2016-Sep-23 13:34N 51°55' E 004°14'71 7.9
2016-Sep-23 04:33N 51°35' E 002°24'9 9.1
2016-Sep-23 03:33N 51°27' E 002°15'9 8.5
2016-Sep-23 02:32N 51°19' E 002°09'7 7.4
2016-Sep-23 01:33N 51°13' E 002°03'7 6.6
2016-Sep-23 00:34N 51°09' E 001°55'6 6.1
2016-Sep-22 23:34N 51°06' E 001°47'21 7.1
2016-Sep-22 20:33N 51°03' E 002°21'3 0.4
2016-Sep-22 12:31N 51°02' E 002°16'0 0.0
2016-Sep-22 04:31N 51°02' E 002°16'0 0.0
2016-Sep-22 03:25N 51°02' E 002°16'0 0.0
2016-Sep-22 00:31N 51°02' E 002°16'0 0.0
2016-Sep-21 23:31N 51°02' E 002°16'0 0.0
2016-Sep-21 22:31N 51°02' E 002°16'0 0.0
2016-Sep-21 19:31N 51°02' E 002°16'0 0.0
2016-Sep-21 16:31N 51°02' E 002°16'9 1.3
2016-Sep-21 09:33N 51°10' E 002°10'1010.1
2016-Sep-21 08:33N 51°16' E 002°22'25 8.2
2016-Sep-21 05:33N 51°29' E 002°56'14 6.9
2016-Sep-21 03:33N 51°39' E 003°12'6 5.7
2016-Sep-21 02:31N 51°44' E 003°17'2 0.1
2016-Sep-20 08:11N 51°45' E 003°19'0 0.0
2016-Sep-20 02:21N 51°45' E 003°19'0 0.0
2016-Sep-19 06:17N 51°45' E 003°19'0 0.0
2016-Sep-18 14:21N 51°45' E 003°19'0 0.0
2016-Sep-18 02:17N 51°45' E 003°19'  
Track history (hours):
 
Tides and Currents Weather Stations Pressure Air Temp Water Temp Dewpoint Dewpoint Depression Visibility Wind Speed Wind Dir Waves Ship Positions

Gulf

Last reported at 2016-Sep-27 10:27 UTC. Time now 2016-Sep-28 00:07 UTC.
Position N 50°44' E 000°20'.

Length 96 m; draft 4.9 m.

Type: Cargo ship. MMSI: 304320000.

Date/timePositionNaut miles runAvg speedWind from/ knotsBaromVisibWave heightAir tempDewpointWater temp
2016-Sep-27 10:27N 50°44' E 000°20'8 0.2
2016-Sep-26 00:15N 50°36' E 000°22'2 0.3
2016-Sep-25 17:33N 50°36' E 000°19'37 4.5
2016-Sep-25 09:18N 50°54' E 001°10'11 6.1
2016-Sep-25 07:33N 51°01' E 001°22'18 6.0
2016-Sep-25 04:33N 51°13' E 001°45'35 8.4
2016-Sep-25 00:23N 51°42' E 002°16'14 7.5
2016-Sep-24 22:32N 51°52' E 002°32'7 6.9
2016-Sep-24 21:31N 51°57' E 002°40'17 7.0
2016-Sep-24 19:08N 52°03' E 003°05'36 7.9
2016-Sep-24 14:33N 51°59' E 004°04'12 5.9
2016-Sep-24 12:31N 51°54' E 004°21'0 0.0
2016-Sep-24 10:31N 51°54' E 004°21'0 0.0
2016-Sep-24 09:33N 51°54' E 004°21'0 0.0
2016-Sep-24 03:28N 51°54' E 004°21'0 0.0
2016-Sep-24 02:31N 51°54' E 004°21'0 0.0
2016-Sep-24 01:31N 51°54' E 004°21'0 0.0
2016-Sep-24 00:32N 51°54' E 004°21'0 0.0
2016-Sep-23 19:31N 51°54' E 004°21'0 0.0
2016-Sep-23 17:28N 51°54' E 004°21'0 0.0
2016-Sep-23 16:32N 51°54' E 004°21'0 0.0
2016-Sep-23 15:32N 51°54' E 004°21'5 2.3
2016-Sep-23 13:34N 51°55' E 004°14'71 7.9
2016-Sep-23 04:33N 51°35' E 002°24'9 9.1
2016-Sep-23 03:33N 51°27' E 002°15'9 8.5
2016-Sep-23 02:32N 51°19' E 002°09'7 7.4
2016-Sep-23 01:33N 51°13' E 002°03'7 6.6
2016-Sep-23 00:34N 51°09' E 001°55'6 6.1
2016-Sep-22 23:34N 51°06' E 001°47'21 7.1
2016-Sep-22 20:33N 51°03' E 002°21'3 0.4
2016-Sep-22 12:31N 51°02' E 002°16'0 0.0
2016-Sep-22 04:31N 51°02' E 002°16'0 0.0
2016-Sep-22 03:25N 51°02' E 002°16'0 0.0
2016-Sep-22 00:31N 51°02' E 002°16'0 0.0
2016-Sep-21 23:31N 51°02' E 002°16'0 0.0
2016-Sep-21 22:31N 51°02' E 002°16'0 0.0
2016-Sep-21 19:31N 51°02' E 002°16'0 0.0
2016-Sep-21 16:31N 51°02' E 002°16'9 1.3
2016-Sep-21 09:33N 51°10' E 002°10'1010.1
2016-Sep-21 08:33N 51°16' E 002°22'25 8.2
2016-Sep-21 05:33N 51°29' E 002°56'14 6.9
2016-Sep-21 03:33N 51°39' E 003°12'6 5.7
2016-Sep-21 02:31N 51°44' E 003°17'2 0.1
2016-Sep-20 08:11N 51°45' E 003°19'0 0.0
2016-Sep-20 02:21N 51°45' E 003°19'0 0.0
2016-Sep-19 06:17N 51°45' E 003°19'0 0.0
2016-Sep-18 14:21N 51°45' E 003°19'0 0.0
2016-Sep-18 02:17N 51°45' E 003°19'  

Dump ship's entire track history